DW3701 Weather Reports


Display with metric or nautical units.
time (UTC)temp
F
wind
direction
speed
MPH
gust
MPH
rain 1hr
in
rain 24hr
in
rain mn
in
humidity
%
barometer
mb
20171018034056 45 269 0.0 0.0 0.00 0.00 0.00 73 1024.0
20171018033059 45 269 0.0 0.0 0.00 0.00 0.00 72 1024.1
20171018032057 45 269 0.0 1.0 0.00 0.00 0.00 72 1024.1
20171018031039 46 269 0.0 6.0 0.00 0.00 0.00 70 1024.1
20171018030043 46 212 0.0 1.0 0.00 0.00 0.00 68 1024.0
20171018025047 47 212 0.0 0.0 0.00 0.00 0.00 67 1024.0
20171018024050 48 213 0.0 1.0 0.00 0.00 0.00 66 1023.8
20171018023051 48 212 0.0 3.0 0.00 0.00 0.00 64 1023.8
20171018022046 49 212 0.0 1.0 0.00 0.00 0.00 63 1023.7
20171018021047 49 211 0.0 1.0 0.00 0.00 0.00 63 1023.7
20171018020047 49 212 1.0 5.0 0.00 0.00 0.00 62 1023.7
20171018015045 49 221 1.0 6.0 0.00 0.00 0.00 62 1023.6
20171018014046 49 202 1.0 6.0 0.00 0.00 0.00 61 1023.4
20171018013049 49 201 1.0 6.0 0.00 0.00 0.00 61 1023.4
20171018012046 49 188 3.0 7.0 0.00 0.00 0.00 60 1023.3
20171018011045 50 178 2.0 7.0 0.00 0.00 0.00 60 1023.2
20171018010041 50 176 2.0 6.0 0.00 0.00 0.00 59 1023.2
20171018005100 50 215 1.0 6.0 0.00 0.00 0.00 58 1023.2
20171018004040 51 210 0.0 6.0 0.00 0.00 0.00 58 1023.2
20171018003048 51 200 1.0 3.0 0.00 0.00 0.00 57 1023.1
20171018002045 51 196 1.0 5.0 0.00 0.00 0.00 56 1023.2
20171018001045 52 198 2.0 6.0 0.00 0.00 0.00 55 1023.3
20171018000043 52 215 2.0 7.0 0.00 0.00 0.00 55 1023.3
20171017235040 52 199 3.0 7.0 0.00 0.00 0.00 54 1023.4
20171017234041 52 199 3.0 8.0 0.00 0.00 0.00 54 1023.3
20171017233041 52 194 5.0 8.0 0.00 0.00 0.00 53 1023.3
20171017232039 52 202 4.0 9.0 0.00 0.00 0.00 53 1023.3
20171017231042 53 200 4.0 8.0 0.00 0.00 0.00 52 1023.2
20171017230044 53 195 1.0 5.0 0.00 0.00 0.00 52 1023.1
20171017225040 53 223 3.0 8.0 0.00 0.00 0.00 51 1023.1
20171017224045 54 197 2.0 5.0 0.00 0.00 0.00 50 1023.0
20171017223046 54 195 1.0 6.0 0.00 0.00 0.00 50 1023.0
20171017222051 54 208 3.0 8.0 0.00 0.00 0.00 48 1023.0
20171017221052 55 204 3.0 7.0 0.00 0.00 0.00 48 1022.9
20171017220049 55 190 2.0 6.0 0.00 0.00 0.00 47 1023.0
20171017215040 55 205 2.0 7.0 0.00 0.00 0.00 45 1023.0
20171017214059 56 201 3.0 9.0 0.00 0.00 0.00 45 1023.1
20171017213057 56 203 3.0 10.0 0.00 0.00 0.00 44 1023.1
20171017212054 56 200 3.0 9.0 0.00 0.00 0.00 44 1023.2
20171017211052 57 233 6.0 10.0 0.00 0.00 0.00 43 1023.2
20171017210055 57 207 4.0 14.0 0.00 0.00 0.00 42 1023.0
20171017205050 57 189 3.0 10.0 0.00 0.00 0.00 42 1023.2
20171017204045 57 181 5.0 12.0 0.00 0.00 0.00 42 1023.3
20171017203047 58 180 4.0 10.0 0.00 0.00 0.00 41 1023.3
20171017202041 58 174 6.0 12.0 0.00 0.00 0.00 40 1023.5
20171017201100 58 202 5.0 10.0 0.00 0.00 0.00 40 1023.5
20171017200042 58 182 4.0 12.0 0.00 0.00 0.00 39 1023.5
20171017195054 59 162 4.0 8.0 0.00 0.00 0.00 38 1023.5
20171017194054 59 180 2.0 7.0 0.00 0.00 0.00 37 1023.5
20171017193054 60 217 3.0 7.0 0.00 0.00 0.00 33 1023.6
20171017192044 59 271 1.0 10.0 0.00 0.00 0.00 35 1023.7
20171017191044 59 251 3.0 13.0 0.00 0.00 0.00 34 1023.8
20171017190044 58 195 2.0 9.0 0.00 0.00 0.00 34 1023.9
20171017185057 58 274 4.0 10.0 0.00 0.00 0.00 34 1024.0
20171017184056 58 286 6.0 13.0 0.00 0.00 0.00 35 1024.3
20171017183057 58 260 8.0 16.0 0.00 0.00 0.00 35 1024.4
20171017182053 57 284 7.0 13.0 0.00 0.00 0.00 36 1024.7
20171017181056 58 246 1.0 4.0 0.00 0.00 0.00 37 1024.9
20171017180058 57 246 0.0 2.0 0.00 0.00 0.00 38 1025.0
20171017175056 55 246 2.0 4.0 0.00 0.00 0.00 39 1025.2
20171017174038 55 252 1.0 4.0 0.00 0.00 0.00 39 1025.5
20171017173101 55 264 0.0 2.0 0.00 0.00 0.00 39 1025.7
20171017172057 55 264 1.0 6.0 0.00 0.00 0.00 40 1025.9
20171017171055 54 264 0.0 3.0 0.00 0.00 0.00 41 1026.0
20171017170057 53 263 0.0 8.0 0.00 0.00 0.00 42 1026.3
20171017165053 53 263 0.0 4.0 0.00 0.00 0.00 43 1026.4
20171017164058 53 275 0.0 2.0 0.00 0.00 0.00 45 1026.6
20171017163053 53 276 0.0 6.0 0.00 0.00 0.00 47 1026.8
20171017162046 52 276 2.0 6.0 0.00 0.00 0.00 49 1027.0
20171017161044 51 276 0.0 1.0 0.00 0.00 0.00 50 1027.1
20171017160043 51 276 0.0 3.0 0.00 0.00 0.00 49 1027.2
20171017155038 51 276 0.0 4.0 0.00 0.00 0.00 51 1027.2
20171017154037 50 276 0.0 4.0 0.00 0.00 0.00 53 1027.5
20171017153057 49 339 0.0 5.0 0.00 0.00 0.00 55 1027.6
20171017152042 49 306 0.0 2.0 0.00 0.00 0.00 55 1027.7
20171017151044 48 306 0.0 6.0 0.00 0.00 0.00 56 1027.7
20171017150102 48 341 0.0 3.0 0.00 0.00 0.00 58 1027.7
20171017145050 47 338 0.0 5.0 0.00 0.00 0.00 59 1027.8
20171017144051 46 338 0.0 2.0 0.00 0.00 0.00 58 1027.9
20171017143052 46 338 0.0 1.0 0.00 0.00 0.00 61 1028.0
20171017142044 45 338 0.0 3.0 0.00 0.00 0.00 62 1028.0
20171017141055 45 338 0.0 2.0 0.00 0.00 0.00 63 1028.1
20171017140053 44 339 0.0 4.0 0.00 0.00 0.00 66 1028.1
20171017135046 44 338 0.0 3.0 0.00 0.00 0.00 67 1028.1
20171017134046 43 339 0.0 4.0 0.00 0.00 0.00 69 1028.1
20171017133045 42 339 0.0 1.0 0.00 0.00 0.00 71 1028.2
20171017132042 42 339 0.0 3.0 0.00 0.00 0.00 73 1028.4
20171017131040 41 339 1.0 3.0 0.00 0.00 0.00 75 1028.5
20171017130042 40 339 0.0 0.0 0.00 0.00 0.00 78 1028.4
20171017125042 39 338 0.0 0.0 0.00 0.00 0.00 80 1028.5
20171017124045 38 339 0.0 0.0 0.00 0.00 0.00 81 1028.5
20171017123046 38 338 0.0 3.0 0.00 0.00 0.00 82 1028.3
20171017122042 37 338 0.0 0.0 0.00 0.00 0.00 82 1028.2
20171017121101 37 339 0.0 0.0 0.00 0.00 0.00 82 1028.2
20171017120043 37 339 0.0 1.0 0.00 0.00 0.00 82 1028.1
20171017115041 36 338 0.0 0.0 0.00 0.00 0.00 82 1028.0
20171017114039 36 338 0.0 0.0 0.00 0.00 0.00 81 1028.0
20171017113103 36 339 0.0 0.0 0.00 0.00 0.00 81 1027.8
20171017112041 36 339 0.0 0.0 0.00 0.00 0.00 81 1027.7
20171017111038 36 338 0.0 0.0 0.00 0.00 0.00 80 1027.7
20171017110102 37 338 0.0 1.0 0.00 0.00 0.00 80 1027.7
20171017105057 37 338 0.0 0.0 0.00 0.00 0.00 80 1027.6
20171017104051 37 338 0.0 8.0 0.00 0.00 0.00 80 1027.5
20171017103049 37 349 0.0 3.0 0.00 0.00 0.00 80 1027.5
20171017102046 37 349 0.0 1.0 0.00 0.00 0.00 79 1027.5
20171017101049 37 350 0.0 3.0 0.00 0.00 0.00 79 1027.5
20171017100048 37 350 0.0 5.0 0.00 0.00 0.00 79 1027.2
20171017095044 37 350 0.0 0.0 0.00 0.00 0.00 79 1027.1
20171017094039 37 350 0.0 1.0 0.00 0.00 0.00 78 1027.1
20171017093059 37 349 0.0 2.0 0.00 0.00 0.00 78 1026.9
20171017092052 37 350 0.0 0.0 0.00 0.00 0.00 78 1026.8
20171017091050 37 350 0.0 1.0 0.00 0.00 0.00 78 1026.7
20171017090052 37 350 0.0 5.0 0.00 0.00 0.00 78 1026.6
20171017085045 37 350 1.0 4.0 0.00 0.00 0.00 79 1026.6
20171017084042 38 350 0.0 2.0 0.00 0.00 0.00 79 1026.5
20171017083044 38 349 0.0 6.0 0.00 0.00 0.00 79 1026.3
20171017082040 38 349 2.0 8.0 0.00 0.00 0.00 79 1026.1
20171017081043 38 344 0.0 3.0 0.00 0.00 0.00 79 1026.0
20171017080051 38 344 0.0 0.0 0.00 0.00 0.00 79 1025.8
20171017075052 38 344 0.0 0.0 0.00 0.00 0.00 79 1025.7
20171017074053 39 344 0.0 0.0 0.00 0.00 0.00 79 1025.6
20171017073058 39 344 0.0 0.0 0.00 0.00 0.00 79 1025.6
20171017072056 39 344 0.0 8.0 0.00 0.00 0.00 79 1025.6
20171017071054 39 330 1.0 5.0 0.00 0.00 0.00 79 1025.5
20171017070057 39 330 0.0 6.0 0.00 0.00 0.00 79 1025.5
20171017065054 40 334 1.0 8.0 0.00 0.00 0.00 78 1025.4
20171017064057 40 329 0.0 4.0 0.00 0.00 0.00 78 1025.4
20171017063057 40 334 0.0 3.0 0.00 0.00 0.00 78 1025.4
20171017062050 40 344 1.0 6.0 0.00 0.00 0.00 78 1025.4
20171017061045 40 329 1.0 6.0 0.00 0.00 0.00 78 1025.4
20171017060045 41 327 1.0 6.0 0.00 0.00 0.00 78 1025.3
20171017055043 41 334 1.0 5.0 0.00 0.00 0.00 77 1025.2
20171017054047 41 345 1.0 4.0 0.00 0.00 0.00 77 1025.2
20171017053046 42 327 0.0 2.0 0.00 0.00 0.00 76 1024.9
20171017052040 42 327 0.0 1.0 0.00 0.00 0.00 75 1024.9
20171017051047 42 327 0.0 2.0 0.00 0.00 0.00 74 1024.8
20171017050047 42 326 0.0 5.0 0.00 0.00 0.00 74 1024.7
20171017045038 42 355 1.0 5.0 0.00 0.00 0.00 74 1024.6
20171017044058 42 360 0.0 4.0 0.00 0.00 0.00 75 1024.4
20171017043056 43 360 0.0 3.0 0.00 0.00 0.00 76 1024.4
20171017042046 43 360 0.0 9.0 0.00 0.00 0.00 75 1024.4
20171017041055 44 351 1.0 5.0 0.00 0.00 0.00 75 1024.3
20171017040056 44 340 2.0 9.0 0.00 0.00 0.00 75 1024.3